Time;durP1;ratioP1;P1;durP2;ratioP2;P2;SDS_P1;SDS_P2;PMS_P1;PMS_P2;Temp;Humidity;BMP_temperature;BMP_pressure;BME280_temperature;BME280_humidity;BME280_pressure;Samples;Min_cycle;Max_cycle;Signal;HPM_P1;HPM_P2
2022/11/26 00:02:47;;;;;;;4.85;2.13;;;15.80;70.20;;;;;;10444770;28;20045;-55
2022/11/26 00:07:56;;;;;;;4.35;2.25;;;15.80;70.00;;;;;;10443835;28;20063;-55
2022/11/26 00:12:57;;;;;;;4.82;2.17;;;15.80;70.00;;;;;;10427237;28;20029;-55
2022/11/26 00:17:58;;;;;;;4.20;2.03;;;15.80;70.00;;;;;;10445099;28;20652;-55
2022/11/26 00:23:02;;;;;;;4.13;2.50;;;15.80;69.90;;;;;;10444005;28;20024;-56
2022/11/26 00:28:10;;;;;;;6.07;3.53;;;15.90;69.90;;;;;;10443800;28;20652;-57
2022/11/26 00:33:10;;;;;;;3.92;2.53;;;15.80;69.90;;;;;;10443500;28;20029;-56
2022/11/26 00:38:17;;;;;;;6.93;2.72;;;15.80;69.90;;;;;;10436237;28;20127;-55
2022/11/26 00:43:18;;;;;;;3.95;1.88;;;15.80;69.80;;;;;;10450782;28;20060;-56
2022/11/26 00:48:19;;;;;;;5.05;2.00;;;15.80;69.80;;;;;;10450627;28;20529;-57
2022/11/26 00:53:23;;;;;;;4.50;1.95;;;15.80;70.00;;;;;;10450764;28;20104;-56
2022/11/26 00:58:29;;;;;;;3.17;1.77;;;15.80;69.80;;;;;;10433994;28;20405;-55
2022/11/26 01:03:29;;;;;;;3.72;1.85;;;15.80;69.70;;;;;;10451987;28;20474;-54
2022/11/26 01:08:34;;;;;;;3.30;2.40;;;15.90;69.70;;;;;;10451056;28;20078;-56
2022/11/26 01:13:35;;;;;;;5.60;1.98;;;15.80;69.70;;;;;;10449860;28;20037;-55
2022/11/26 01:18:36;;;;;;;5.35;2.05;;;15.80;69.80;;;;;;10449598;28;20060;-56
2022/11/26 01:23:36;;;;;;;3.13;1.50;;;15.80;69.70;;;;;;10450785;28;20052;-55
2022/11/26 01:28:37;;;;;;;3.17;1.80;;;15.90;69.70;;;;;;10449107;28;20033;-56
2022/11/26 01:33:37;;;;;;;6.03;2.20;;;16.00;73.70;;;;;;10449291;28;20128;-56
2022/11/26 01:38:38;;;;;;;4.55;2.05;;;16.10;73.20;;;;;;10450084;28;20083;-56
2022/11/26 01:43:42;;;;;;;5.13;2.25;;;16.10;73.10;;;;;;10450306;28;20112;-56
2022/11/26 01:48:43;;;;;;;3.40;1.85;;;16.00;73.00;;;;;;10448324;28;20029;-56
2022/11/26 01:53:59;;;;;;;3.70;1.88;;;16.00;73.00;;;;;;10447840;28;20025;-56
2022/11/26 01:59:07;;;;;;;4.53;1.77;;;15.90;73.10;;;;;;10448430;28;20132;-55
2022/11/26 02:04:16;;;;;;;3.65;1.75;;;15.90;73.10;;;;;;10449078;28;20373;-56
2022/11/26 02:09:17;;;;;;;3.07;1.90;;;15.80;73.10;;;;;;10449214;28;20029;-57
2022/11/26 02:14:34;;;;;;;3.15;1.90;;;15.80;72.80;;;;;;10447442;28;20025;-56
2022/11/26 02:20:15;;;;;;;3.03;1.73;;;15.80;72.40;;;;;;10447194;28;20037;-56
2022/11/26 02:25:56;;;;;;;2.70;1.85;;;15.80;72.40;;;;;;10448292;28;20024;-55
2022/11/26 02:31:10;;;;;;;3.45;1.55;;;15.80;72.50;;;;;;10447941;28;20021;-56
2022/11/26 02:36:34;;;;;;;4.30;2.05;;;15.70;72.10;;;;;;10447741;28;20065;-57
2022/11/26 02:41:43;;;;;;;3.22;1.88;;;15.80;71.90;;;;;;10446673;28;20021;-56
2022/11/26 02:46:48;;;;;;;4.10;2.17;;;15.90;71.70;;;;;;10446377;28;20028;-55
2022/11/26 02:51:56;;;;;;;5.03;2.22;;;15.80;71.40;;;;;;10446213;28;20380;-55
2022/11/26 02:56:58;;;;;;;3.42;1.60;;;15.90;71.20;;;;;;10445686;28;20025;-57
2022/11/26 03:02:04;;;;;;;2.80;1.90;;;15.90;71.10;;;;;;10446343;28;20025;-55
2022/11/26 03:07:08;;;;;;;3.08;1.70;;;15.80;71.00;;;;;;10446011;28;20021;-55
2022/11/26 03:12:08;;;;;;;2.83;1.90;;;15.80;71.10;;;;;;10445507;28;20044;-56
2022/11/26 03:17:09;;;;;;;4.20;2.10;;;15.90;70.90;;;;;;10445250;28;20047;-56
2022/11/26 03:22:11;;;;;;;4.15;2.28;;;15.90;70.80;;;;;;10446568;28;20017;-56
2022/11/26 03:27:11;;;;;;;4.13;2.00;;;15.90;70.90;;;;;;10446156;28;20044;-56
2022/11/26 03:32:12;;;;;;;4.15;1.90;;;15.80;70.80;;;;;;10444754;28;20344;-55
2022/11/26 03:37:13;;;;;;;2.83;1.42;;;15.80;70.70;;;;;;10445544;28;20128;-57
2022/11/26 03:42:14;;;;;;;3.10;1.95;;;15.90;70.50;;;;;;10444806;28;20017;-57
2022/11/26 03:47:14;;;;;;;4.15;2.03;;;15.90;70.40;;;;;;10444678;28;20430;-56
2022/11/26 03:52:15;;;;;;;4.13;1.75;;;16.00;70.20;;;;;;10445546;28;20120;-55
2022/11/26 03:57:16;;;;;;;3.20;2.00;;;16.00;70.10;;;;;;10445101;28;20017;-56
2022/11/26 04:02:17;;;;;;;4.43;1.73;;;15.90;70.20;;;;;;10443693;28;20368;-57
2022/11/26 04:07:17;;;;;;;3.80;2.10;;;15.90;70.10;;;;;;10444377;28;20024;-56
2022/11/26 04:12:18;;;;;;;3.33;2.17;;;16.00;70.00;;;;;;10450533;28;20116;-53
2022/11/26 04:17:18;;;;;;;3.05;1.70;;;15.90;70.00;;;;;;10451733;28;20009;-56
2022/11/26 04:22:19;;;;;;;3.58;1.92;;;15.90;70.10;;;;;;10453359;28;20096;-56
2022/11/26 04:27:20;;;;;;;3.17;1.55;;;15.90;69.80;;;;;;10452967;28;21030;-57
2022/11/26 04:32:20;;;;;;;3.35;2.22;;;15.90;69.90;;;;;;10451645;28;20113;-55
2022/11/26 04:37:21;;;;;;;3.00;1.85;;;15.90;70.00;;;;;;10451151;28;20143;-57
2022/11/26 04:42:22;;;;;;;3.88;1.90;;;15.90;69.80;;;;;;10450743;28;20028;-55
2022/11/26 04:47:22;;;;;;;3.13;2.08;;;15.90;69.80;;;;;;10434354;28;20032;-56
2022/11/26 04:52:23;;;;;;;3.22;1.80;;;15.90;69.80;;;;;;10456031;28;20691;-55
2022/11/26 04:57:24;;;;;;;3.55;1.95;;;15.90;69.70;;;;;;10451559;28;20041;-55
2022/11/26 05:02:25;;;;;;;2.63;1.77;;;15.90;69.70;;;;;;10450561;28;20021;-57
2022/11/26 05:07:26;;;;;;;3.25;1.85;;;15.80;69.80;;;;;;10451342;28;20388;-56
2022/11/26 05:12:26;;;;;;;5.05;2.70;;;15.90;69.70;;;;;;10450847;28;20434;-53
2022/11/26 05:17:27;;;;;;;3.45;2.22;;;15.90;69.60;;;;;;10466322;28;20009;-56
2022/11/26 05:22:28;;;;;;;3.85;1.88;;;15.90;69.40;;;;;;10449133;28;20064;-56
2022/11/26 05:27:28;;;;;;;3.55;1.80;;;15.90;69.30;;;;;;10432721;28;20020;-55
2022/11/26 05:32:29;;;;;;;5.10;2.35;;;15.90;69.30;;;;;;10449511;28;20116;-56
2022/11/26 05:37:30;;;;;;;3.22;2.03;;;15.90;69.40;;;;;;10450511;28;20048;-56
2022/11/26 05:42:31;;;;;;;3.03;2.03;;;15.90;69.30;;;;;;10449968;28;20699;-57
2022/11/26 05:47:31;;;;;;;7.38;4.53;;;15.90;69.30;;;;;;10450192;28;20029;-57
2022/11/26 05:52:32;;;;;;;5.13;3.85;;;15.90;70.10;;;;;;10449928;28;20029;-56
2022/11/26 05:57:33;;;;;;;13.15;3.97;;;16.10;69.80;;;;;;10449160;28;20066;-56
2022/11/26 06:02:33;;;;;;;17.33;5.03;;;16.00;71.20;;;;;;10449844;28;20052;-55
2022/11/26 06:07:34;;;;;;;14.00;4.70;;;15.90;72.40;;;;;;10447335;28;20036;-56
2022/11/26 06:12:35;;;;;;;11.93;4.47;;;15.80;71.90;;;;;;10430025;28;20091;-56
2022/11/26 06:17:36;;;;;;;12.63;5.05;;;15.90;71.10;;;;;;10446609;28;20074;-55
2022/11/26 06:22:38;;;;;;;19.77;5.82;;;16.00;72.90;;;;;;10464160;28;20032;-56
2022/11/26 06:27:40;;;;;;;13.57;5.47;;;16.00;72.90;;;;;;10430596;28;20086;-58
2022/11/26 06:32:40;;;;;;;10.73;6.07;;;16.10;72.90;;;;;;10446527;28;20045;-58
2022/11/26 06:37:41;;;;;;;13.73;5.30;;;16.10;73.30;;;;;;10446596;28;20111;-54
2022/11/26 06:42:49;;;;;;;19.88;6.22;;;16.10;72.90;;;;;;10448248;28;20040;-58
2022/11/26 06:47:51;;;;;;;17.08;5.75;;;16.10;73.20;;;;;;10447995;28;20017;-58
2022/11/26 06:52:52;;;;;;;15.40;5.55;;;16.10;73.40;;;;;;10446608;28;20025;-55
2022/11/26 06:57:53;;;;;;;18.75;5.95;;;16.00;73.80;;;;;;10445004;28;20488;-56
2022/11/26 07:02:53;;;;;;;15.52;6.55;;;15.90;73.20;;;;;;10479323;28;20031;-55
2022/11/26 07:07:54;;;;;;;16.20;5.90;;;16.00;73.10;;;;;;10447262;28;20456;-54
2022/11/26 07:12:55;;;;;;;17.63;5.93;;;15.90;73.30;;;;;;10445654;28;20120;-55
2022/11/26 07:17:58;;;;;;;20.77;6.53;;;15.90;73.30;;;;;;10444762;28;20116;-57
2022/11/26 07:23:01;;;;;;;15.63;6.55;;;15.70;73.50;;;;;;10443823;28;20021;-55
2022/11/26 07:28:02;;;;;;;24.25;7.50;;;15.60;74.10;;;;;;10445154;28;20025;-56
2022/11/26 07:33:03;;;;;;;27.92;6.70;;;15.60;74.20;;;;;;10443994;28;20711;-57
2022/11/26 07:38:03;;;;;;;21.35;6.32;;;15.60;74.10;;;;;;10443446;28;20048;-56
2022/11/26 07:43:04;;;;;;;18.65;6.28;;;15.50;74.60;;;;;;10446038;28;20109;-57
2022/11/26 07:48:05;;;;;;;20.55;6.00;;;15.50;74.50;;;;;;10453177;28;20151;-57
2022/11/26 07:53:06;;;;;;;16.90;5.50;;;15.50;74.40;;;;;;10455061;28;20025;-56
2022/11/26 07:58:06;;;;;;;18.33;5.82;;;15.60;73.70;;;;;;10454393;28;20049;-58
2022/11/26 08:03:07;;;;;;;17.85;5.25;;;15.60;73.40;;;;;;10448462;28;20104;-55
2022/11/26 08:08:08;;;;;;;19.40;4.93;;;15.60;73.30;;;;;;10453239;28;20669;-56
2022/11/26 08:13:09;;;;;;;14.63;6.38;;;15.70;72.80;;;;;;10453350;28;20485;-57
2022/11/26 08:18:10;;;;;;;15.48;5.28;;;15.60;72.60;;;;;;10452809;28;20052;-54
2022/11/26 08:23:11;;;;;;;22.08;4.78;;;15.60;72.80;;;;;;10453105;28;20025;-56
2022/11/26 08:28:12;;;;;;;12.30;4.22;;;15.50;73.00;;;;;;10453445;28;20044;-56
2022/11/26 08:33:13;;;;;;;15.10;4.85;;;15.60;72.40;;;;;;10453846;28;20104;-55
2022/11/26 08:38:14;;;;;;;10.80;4.75;;;15.60;71.90;;;;;;10455170;28;20489;-56
2022/11/26 08:43:14;;;;;;;10.38;4.50;;;15.70;71.60;;;;;;10451462;28;20112;-54
2022/11/26 08:48:15;;;;;;;8.95;4.00;;;15.70;71.60;;;;;;10453895;28;20420;-57
2022/11/26 08:53:16;;;;;;;7.20;3.50;;;15.70;71.50;;;;;;10450280;28;20067;-55
2022/11/26 08:58:17;;;;;;;6.85;3.75;;;15.80;71.20;;;;;;10454491;28;20025;-57
2022/11/26 09:03:17;;;;;;;9.70;4.15;;;15.80;71.20;;;;;;10454644;28;20025;-55
2022/11/26 09:08:18;;;;;;;5.20;3.35;;;15.60;71.80;;;;;;10453976;28;20043;-57
2022/11/26 09:13:19;;;;;;;10.65;3.42;;;15.70;71.20;;;;;;10453051;28;20698;-57
2022/11/26 09:18:19;;;;;;;7.15;3.30;;;15.80;71.60;;;;;;10449964;28;20021;-56
2022/11/26 09:23:20;;;;;;;8.35;3.30;;;15.80;71.00;;;;;;10450600;28;20027;-56
2022/11/26 09:28:21;;;;;;;8.65;3.15;;;15.90;70.80;;;;;;10452349;28;20120;-54
2022/11/26 09:33:21;;;;;;;6.28;3.47;;;15.80;70.80;;;;;;10450971;28;20541;-55
2022/11/26 09:38:22;;;;;;;9.25;3.00;;;15.80;71.00;;;;;;10448412;28;20499;-55
2022/11/26 09:43:35;;;;;;;7.00;3.20;;;15.80;70.90;;;;;;10450119;28;20059;-56
2022/11/26 09:48:39;;;;;;;7.70;3.30;;;15.80;70.80;;;;;;10450983;28;20025;-55
2022/11/26 09:53:47;;;;;;;7.03;2.88;;;15.70;71.00;;;;;;10445760;28;20075;-56
2022/11/26 09:58:56;;;;;;;5.80;3.13;;;15.80;70.90;;;;;;10431627;28;20017;-55
2022/11/26 10:03:58;;;;;;;7.97;3.03;;;15.80;70.90;;;;;;10448615;28;20023;-55
2022/11/26 10:09:29;;;;;;;7.80;2.72;;;15.60;72.60;;;;;;10446827;28;20050;-55
2022/11/26 10:15:02;;;;;;;5.60;3.05;;;15.70;71.50;;;;;;10447366;28;20090;-55
2022/11/26 10:20:47;;;;;;;11.00;3.58;;;15.70;71.10;;;;;;10436985;28;20472;-55
2022/11/26 10:26:04;;;;;;;8.32;3.20;;;15.70;71.10;;;;;;10480025;28;20055;-55
2022/11/26 10:31:31;;;;;;;7.13;3.30;;;15.70;71.40;;;;;;10430279;28;20040;-56
2022/11/26 10:36:39;;;;;;;8.30;3.35;;;15.80;72.80;;;;;;10447515;28;20052;-56
2022/11/26 10:41:40;;;;;;;8.77;3.10;;;15.80;72.30;;;;;;10447336;28;20036;-55
2022/11/26 10:46:41;;;;;;;6.32;3.38;;;15.90;72.20;;;;;;10446384;28;20036;-56
2022/11/26 10:51:47;;;;;;;7.63;3.08;;;16.00;72.00;;;;;;10445951;28;20037;-55
2022/11/26 10:56:52;;;;;;;10.63;2.80;;;15.90;72.10;;;;;;10446834;28;20017;-54
2022/11/26 11:01:54;;;;;;;8.68;2.90;;;15.90;72.40;;;;;;10445607;28;20472;-56
2022/11/26 11:06:56;;;;;;;8.98;2.97;;;15.90;72.70;;;;;;10445501;28;20082;-56
2022/11/26 11:12:18;;;;;;;7.30;2.92;;;15.90;72.20;;;;;;10444744;28;20083;-55
2022/11/26 11:17:35;;;;;;;13.90;4.32;;;15.90;72.00;;;;;;10434987;28;20060;-56
2022/11/26 11:22:35;;;;;;;10.57;3.33;;;15.80;72.20;;;;;;10444128;28;20044;-53
2022/11/26 11:27:42;;;;;;;13.45;2.70;;;15.70;72.40;;;;;;10442143;28;20108;-56
2022/11/26 11:32:42;;;;;;;14.20;4.68;;;15.80;72.60;;;;;;10444970;28;20032;-56
2022/11/26 11:37:53;;;;;;;7.97;3.67;;;15.80;73.00;;;;;;10444771;28;20032;-56
2022/11/26 11:43:04;;;;;;;14.75;3.45;;;15.90;73.20;;;;;;10445242;28;20612;-57
2022/11/26 11:48:56;;;;;;;13.82;3.80;;;16.00;73.20;;;;;;10445711;28;20075;-56
2022/11/26 11:54:23;;;;;;;9.90;3.17;;;16.00;72.90;;;;;;10442782;28;20565;-57
2022/11/26 11:59:57;;;;;;;17.48;3.58;;;16.00;73.20;;;;;;10456910;28;20041;-56
2022/11/26 12:05:31;;;;;;;13.05;3.28;;;16.00;73.10;;;;;;10444550;28;20025;-56
2022/11/26 12:11:09;;;;;;;19.58;4.32;;;16.10;72.30;;;;;;10445827;28;20764;-54
2022/11/26 12:16:12;;;;;;;22.20;5.05;;;15.90;72.80;;;;;;10424207;28;20045;-54
2022/11/26 12:21:15;;;;;;;27.20;6.18;;;15.80;73.40;;;;;;10445004;28;20021;-56
2022/11/26 12:26:33;;;;;;;38.70;5.78;;;15.70;73.60;;;;;;10443742;28;20079;-55
2022/11/26 12:31:48;;;;;;;34.85;6.15;;;15.70;73.90;;;;;;10434445;28;20029;-55
2022/11/26 12:37:00;;;;;;;30.90;5.38;;;15.70;73.60;;;;;;10451205;28;20037;-54
2022/11/26 12:42:29;;;;;;;35.92;7.65;;;15.80;73.30;;;;;;10452381;28;20048;-54
2022/11/26 12:47:39;;;;;;;32.03;6.20;;;15.70;73.40;;;;;;10451475;28;20425;-55
2022/11/26 12:52:57;;;;;;;32.63;7.00;;;15.70;73.90;;;;;;10452473;28;20055;-55
2022/11/26 12:58:09;;;;;;;43.83;7.95;;;15.70;73.80;;;;;;10451193;28;20056;-57
2022/11/26 13:03:16;;;;;;;37.55;8.73;;;15.70;74.30;;;;;;10450804;28;20021;-57
2022/11/26 13:08:56;;;;;;;22.38;7.00;;;15.60;73.90;;;;;;10467090;28;20029;-56
2022/11/26 13:14:42;;;;;;;26.10;6.27;;;15.50;73.80;;;;;;10450007;28;20068;-56
2022/11/26 13:20:05;;;;;;;24.48;6.65;;;15.50;73.80;;;;;;10448020;28;20506;-56
2022/11/26 13:25:30;;;;;;;18.90;6.25;;;15.50;74.30;;;;;;10451904;28;20024;-55
2022/11/26 13:31:07;;;;;;;26.83;6.78;;;15.40;73.70;;;;;;10450913;28;20044;-56
2022/11/26 13:36:31;;;;;;;17.00;4.90;;;15.40;73.70;;;;;;10450671;28;20524;-55
2022/11/26 13:42:11;;;;;;;18.63;6.30;;;15.40;73.70;;;;;;10452440;28;20017;-55
2022/11/26 13:47:46;;;;;;;15.75;4.97;;;15.40;73.60;;;;;;10453006;28;20097;-57
2022/11/26 13:53:21;;;;;;;12.13;4.57;;;15.50;73.10;;;;;;10452703;28;20038;-56
2022/11/26 13:58:32;;;;;;;13.80;3.85;;;15.50;73.00;;;;;;10453155;28;20029;-57
2022/11/26 14:03:48;;;;;;;20.77;5.28;;;15.50;72.80;;;;;;10451949;28;20615;-57
2022/11/26 14:08:51;;;;;;;13.05;4.10;;;15.60;72.70;;;;;;10445275;28;20037;-55
2022/11/26 14:14:24;;;;;;;13.40;4.00;;;15.60;72.50;;;;;;10447403;28;20036;-55
2022/11/26 14:19:47;;;;;;;27.27;7.18;;;15.50;72.50;;;;;;10448922;28;20021;-60
2022/11/26 14:24:47;;;;;;;15.85;4.38;;;15.60;72.20;;;;;;10447670;28;20021;-57
2022/11/26 14:30:06;;;;;;;10.32;4.75;;;15.70;71.80;;;;;;10448539;28;20659;-56
2022/11/26 14:35:24;;;;;;;13.18;3.67;;;15.70;71.70;;;;;;10448294;28;20071;-56
2022/11/26 14:40:35;;;;;;;10.38;4.90;;;15.70;71.90;;;;;;10447253;28;20044;-55
2022/11/26 14:45:37;;;;;;;17.50;5.60;;;15.60;71.90;;;;;;10480539;28;20111;-55
2022/11/26 14:50:44;;;;;;;11.55;4.32;;;15.60;71.90;;;;;;10447989;28;20032;-55
2022/11/26 14:55:46;;;;;;;12.93;4.38;;;15.60;72.10;;;;;;10445474;28;20021;-56
2022/11/26 15:01:14;;;;;;;8.45;4.00;;;15.60;72.10;;;;;;10446205;28;20044;-57
2022/11/26 15:06:41;;;;;;;12.85;4.22;;;15.70;71.70;;;;;;10447049;28;20645;-57
2022/11/26 15:12:08;;;;;;;12.73;4.57;;;15.70;71.30;;;;;;10447297;28;20492;-56
2022/11/26 15:17:17;;;;;;;8.60;3.42;;;15.70;71.30;;;;;;10441550;28;20029;-56
2022/11/26 15:22:20;;;;;;;;;;;15.70;71.10;;;;;;10447309;28;20025;-56
2022/11/26 15:27:39;;;;;;;10.05;3.30;;;15.70;71.30;;;;;;10446872;28;19904;-54
2022/11/26 15:32:40;;;;;;;8.30;3.38;;;15.70;71.30;;;;;;10446868;28;20468;-56
2022/11/26 15:37:41;;;;;;;6.50;2.70;;;15.70;71.10;;;;;;10446641;28;20095;-55
2022/11/26 15:42:44;;;;;;;9.20;3.38;;;15.80;70.90;;;;;;10446250;28;20652;-56
2022/11/26 15:47:48;;;;;;;6.93;3.42;;;15.90;70.70;;;;;;10445225;28;20460;-56
2022/11/26 15:52:49;;;;;;;6.68;3.35;;;15.80;70.60;;;;;;10436832;28;20033;-55
2022/11/26 15:57:51;;;;;;;8.52;3.55;;;15.80;70.70;;;;;;10446092;28;20025;-56
2022/11/26 16:02:51;;;;;;;6.05;3.00;;;15.80;70.80;;;;;;10445015;28;20025;-56
2022/11/26 16:08:19;;;;;;;8.70;2.95;;;15.80;70.70;;;;;;10451922;28;20376;-56
2022/11/26 16:13:21;;;;;;;16.25;3.95;;;15.80;71.00;;;;;;10452039;28;20028;-56
2022/11/26 16:18:59;;;;;;;14.68;3.75;;;16.00;70.80;;;;;;10452402;28;20025;-57
2022/11/26 16:24:39;;;;;;;16.67;3.58;;;16.10;71.40;;;;;;10452688;28;20025;-56
2022/11/26 16:29:40;;;;;;;22.33;4.57;;;16.50;69.90;;;;;;10409116;28;20566;-57
2022/11/26 16:34:41;;;;;;;11.75;4.82;;;16.70;69.30;;;;;;10452324;28;20139;-54
2022/11/26 16:39:41;;;;;;;13.30;5.90;;;16.60;68.80;;;;;;10452839;28;20036;-55
2022/11/26 16:44:42;;;;;;;15.32;5.07;;;16.60;68.60;;;;;;10450856;28;20061;-56
2022/11/26 16:49:44;;;;;;;11.80;4.85;;;16.70;68.40;;;;;;10452068;28;20056;-56
2022/11/26 16:54:45;;;;;;;22.60;4.88;;;16.80;67.80;;;;;;10451591;28;20128;-55
2022/11/26 16:59:57;;;;;;;12.70;5.40;;;16.90;67.30;;;;;;10451039;28;20025;-56
2022/11/26 17:04:57;;;;;;;11.45;6.38;;;17.10;66.80;;;;;;10450012;28;20646;-56
2022/11/26 17:09:58;;;;;;;14.98;6.18;;;17.40;67.20;;;;;;10452574;28;20023;-56
2022/11/26 17:14:59;;;;;;;17.20;6.78;;;17.50;68.10;;;;;;10443384;28;20037;-55
2022/11/26 17:19:59;;;;;;;11.77;6.47;;;17.50;68.30;;;;;;10436465;28;20052;-58
2022/11/26 17:25:00;;;;;;;16.23;6.57;;;17.60;68.30;;;;;;10451127;28;20160;-55
2022/11/26 17:30:01;;;;;;;14.05;4.82;;;17.70;68.10;;;;;;10449315;28;20114;-54
2022/11/26 17:35:02;;;;;;;11.65;6.30;;;17.60;69.30;;;;;;10449665;28;20048;-55
2022/11/26 17:40:06;;;;;;;13.82;5.43;;;17.50;70.10;;;;;;10451035;28;20078;-56
2022/11/26 17:45:08;;;;;;;13.48;5.10;;;17.40;70.60;;;;;;10448813;28;20029;-55
2022/11/26 17:50:26;;;;;;;13.60;5.03;;;17.30;71.00;;;;;;10447434;28;20035;-57
2022/11/26 17:55:27;;;;;;;17.55;5.25;;;17.20;70.80;;;;;;10448534;28;20025;-54
2022/11/26 18:00:28;;;;;;;12.43;4.75;;;17.60;70.40;;;;;;10449433;28;20677;-53
2022/11/26 18:05:29;;;;;;;12.50;4.82;;;17.50;70.20;;;;;;10443755;28;20553;-55
2022/11/26 18:10:30;;;;;;;7.25;4.15;;;17.20;70.90;;;;;;10440093;28;20128;-54
2022/11/26 18:15:30;;;;;;;10.73;4.40;;;17.00;71.60;;;;;;10447422;28;20569;-56
2022/11/26 18:20:31;;;;;;;6.80;4.05;;;16.80;72.00;;;;;;10449229;28;20028;-56
2022/11/26 18:25:33;;;;;;;7.47;3.60;;;16.80;72.20;;;;;;10448618;28;20687;-54
2022/11/26 18:30:34;;;;;;;4.95;3.53;;;16.70;72.30;;;;;;10433414;28;20017;-56
2022/11/26 18:35:35;;;;;;;7.65;3.92;;;16.60;72.30;;;;;;10442361;28;20128;-56
2022/11/26 18:40:36;;;;;;;12.75;3.85;;;16.50;72.50;;;;;;10446796;28;20018;-56
2022/11/26 18:45:41;;;;;;;10.43;3.72;;;16.40;72.60;;;;;;10447416;28;20029;-56
2022/11/26 18:50:42;;;;;;;11.20;4.88;;;16.40;72.70;;;;;;10446692;28;20032;-56
2022/11/26 18:55:42;;;;;;;9.23;3.60;;;16.30;72.70;;;;;;10479017;28;20035;-54
2022/11/26 19:00:44;;;;;;;10.07;3.47;;;16.30;72.80;;;;;;10446771;28;20049;-57
2022/11/26 19:05:44;;;;;;;8.32;3.78;;;16.30;72.90;;;;;;10444916;28;20021;-55
2022/11/26 19:10:46;;;;;;;10.45;3.38;;;16.20;73.00;;;;;;10436651;28;20105;-57
2022/11/26 19:15:47;;;;;;;6.32;3.15;;;16.20;72.80;;;;;;10450682;28;20090;-56
2022/11/26 19:20:51;;;;;;;9.13;4.28;;;16.10;73.00;;;;;;10438382;28;20017;-56
2022/11/26 19:25:52;;;;;;;6.90;3.20;;;16.10;73.40;;;;;;10428070;28;20628;-56
2022/11/26 19:31:05;;;;;;;9.48;3.78;;;16.00;73.60;;;;;;10439911;28;20100;-57
2022/11/26 19:36:10;;;;;;;7.97;3.97;;;16.00;74.10;;;;;;10441352;28;20624;-57
2022/11/26 19:41:12;;;;;;;6.78;2.88;;;15.90;73.70;;;;;;10449240;28;20013;-58
2022/11/26 19:46:17;;;;;;;6.50;3.25;;;15.90;74.10;;;;;;10440237;28;20520;-57
2022/11/26 19:51:20;;;;;;;11.65;3.33;;;15.90;74.00;;;;;;10457110;28;20026;-57
2022/11/26 19:56:27;;;;;;;9.25;4.13;;;15.90;74.20;;;;;;10452533;28;20078;-60
2022/11/26 20:01:32;;;;;;;7.43;3.35;;;15.90;74.10;;;;;;10443505;28;20044;-59
2022/11/26 20:06:34;;;;;;;8.07;3.20;;;16.00;73.70;;;;;;10441943;28;20110;-61
2022/11/26 20:11:37;;;;;;;8.02;2.33;;;15.90;73.70;;;;;;10444364;28;20033;-60
2022/11/26 20:16:41;;;;;;;6.15;3.13;;;15.80;73.60;;;;;;10432579;28;20023;-59
2022/11/26 20:21:41;;;;;;;6.50;3.70;;;15.80;73.70;;;;;;10444156;28;20033;-59
2022/11/26 20:26:45;;;;;;;10.35;3.85;;;15.80;73.60;;;;;;10445918;28;20053;-59
2022/11/26 20:31:49;;;;;;;10.98;2.67;;;15.70;73.60;;;;;;10443705;28;20041;-60
2022/11/26 20:36:50;;;;;;;6.72;3.63;;;15.70;73.40;;;;;;10443133;28;20055;-59
2022/11/26 20:41:51;;;;;;;5.40;2.88;;;15.60;73.30;;;;;;10427146;28;20031;-59
2022/11/26 20:46:51;;;;;;;7.40;2.67;;;15.60;73.20;;;;;;10443097;28;20021;-59
2022/11/26 20:51:52;;;;;;;6.43;3.17;;;15.60;72.90;;;;;;10427097;28;20124;-60
2022/11/26 20:56:53;;;;;;;7.68;2.53;;;15.60;73.10;;;;;;10450140;28;20132;-60
2022/11/26 21:01:53;;;;;;;7.53;3.20;;;15.60;73.00;;;;;;10448654;28;20445;-59
2022/11/26 21:06:54;;;;;;;5.40;2.83;;;15.70;72.90;;;;;;10433205;28;20059;-59
2022/11/26 21:11:56;;;;;;;6.93;2.70;;;15.70;72.60;;;;;;10451942;28;20452;-59
2022/11/26 21:16:56;;;;;;;6.20;3.40;;;15.70;72.60;;;;;;10450333;28;20035;-59
2022/11/26 21:21:57;;;;;;;5.70;2.40;;;15.70;72.40;;;;;;10451474;28;20021;-58
2022/11/26 21:26:58;;;;;;;6.80;3.35;;;15.70;72.40;;;;;;10451416;28;20070;-59
2022/11/26 21:31:59;;;;;;;4.30;2.35;;;15.70;72.40;;;;;;10449922;28;20071;-59
2022/11/26 21:36:59;;;;;;;4.63;2.35;;;15.70;73.00;;;;;;10450033;28;20463;-59
2022/11/26 21:42:00;;;;;;;4.93;2.28;;;15.70;72.30;;;;;;10460841;28;20078;-59
2022/11/26 21:47:03;;;;;;;8.07;2.35;;;15.70;72.20;;;;;;10449098;28;20017;-59
2022/11/26 21:52:04;;;;;;;4.18;2.35;;;15.80;72.10;;;;;;10448850;28;20621;-58
2022/11/26 21:57:05;;;;;;;12.10;2.85;;;15.70;71.90;;;;;;10448582;28;20124;-62
2022/11/26 22:02:08;;;;;;;4.00;2.65;;;15.80;71.90;;;;;;10449476;28;20080;-58
2022/11/26 22:07:09;;;;;;;7.18;3.28;;;15.80;71.90;;;;;;10448270;28;20568;-59
2022/11/26 22:12:10;;;;;;;12.82;4.45;;;15.80;71.70;;;;;;10448482;28;20110;-58
2022/11/26 22:17:10;;;;;;;6.05;2.50;;;15.80;71.40;;;;;;10447730;28;20067;-59
2022/11/26 22:22:11;;;;;;;4.82;1.95;;;15.80;71.40;;;;;;10449132;28;20044;-59
2022/11/26 22:27:12;;;;;;;4.20;2.63;;;15.90;71.40;;;;;;10447837;28;20021;-59
2022/11/26 22:32:12;;;;;;;5.35;2.03;;;15.80;71.30;;;;;;10447685;28;20432;-59
2022/11/26 22:37:13;;;;;;;4.45;2.33;;;15.80;71.40;;;;;;10444190;28;20132;-59
2022/11/26 22:42:14;;;;;;;6.78;2.35;;;15.80;71.20;;;;;;10447240;28;20021;-59
2022/11/26 22:47:14;;;;;;;4.32;2.13;;;15.80;71.10;;;;;;10430052;28;20115;-59
2022/11/26 22:52:15;;;;;;;4.03;2.08;;;15.80;71.20;;;;;;10447902;28;20154;-59
2022/11/26 22:57:16;;;;;;;5.47;4.03;;;15.80;71.10;;;;;;10446363;28;20443;-59
2022/11/26 23:02:16;;;;;;;4.28;2.13;;;15.80;71.00;;;;;;10447638;28;20030;-59
2022/11/26 23:07:17;;;;;;;4.07;2.42;;;15.80;70.90;;;;;;10446149;28;20049;-58
2022/11/26 23:12:18;;;;;;;5.32;2.47;;;15.80;71.00;;;;;;10447431;28;20051;-59
2022/11/26 23:17:19;;;;;;;3.38;1.77;;;15.80;70.90;;;;;;10445221;28;20021;-59
2022/11/26 23:22:19;;;;;;;3.95;2.72;;;15.80;70.80;;;;;;10445999;28;20090;-59
2022/11/26 23:27:20;;;;;;;3.95;2.40;;;15.80;70.80;;;;;;10445526;28;20052;-58
2022/11/26 23:32:20;;;;;;;5.93;2.28;;;15.80;70.90;;;;;;10445769;28;20057;-58
2022/11/26 23:37:22;;;;;;;4.72;2.42;;;15.80;70.80;;;;;;10445480;28;20079;-58
2022/11/26 23:42:23;;;;;;;4.28;2.22;;;15.80;70.70;;;;;;10445326;28;20021;-60
2022/11/26 23:47:24;;;;;;;5.40;2.42;;;15.80;70.70;;;;;;10428299;28;20049;-59
2022/11/26 23:52:25;;;;;;;3.90;1.65;;;15.80;70.70;;;;;;10445093;28;20033;-59
2022/11/26 23:57:25;;;;;;;5.95;2.50;;;15.80;70.60;;;;;;10443910;28;20092;-59
